Time;durP1;ratioP1;P1;durP2;ratioP2;P2;SDS_P1;SDS_P2;PMS_P1;PMS_P2;Temp;Humidity;BMP_temperature;BMP_pressure;BME280_temperature;BME280_humidity;BME280_pressure;Samples;Min_cycle;Max_cycle;Signal;HPM_P1;HPM_P2
2022/10/17 00:02:04;;;;;;;;;;;11.90;93.50;;;;;;5062630;28;19969;-77
2022/10/17 00:04:29;;;;;;;;;;;11.80;93.60;;;;;;5077596;28;20321;-77
2022/10/17 00:06:55;;;;;;;;;;;11.80;93.50;;;;;;5065524;28;20537;-77
2022/10/17 00:09:20;;;;;;;;;;;11.80;93.70;;;;;;5071664;28;19998;-77
2022/10/17 00:11:46;;;;;;;;;;;11.90;93.40;;;;;;5075142;28;19969;-78
2022/10/17 00:14:11;;;;;;;;;;;11.90;93.50;;;;;;5069098;28;19960;-77
2022/10/17 00:16:37;;;;;;;;;;;12.00;93.40;;;;;;5065034;28;19991;-77
2022/10/17 00:19:03;;;;;;;;;;;12.10;93.10;;;;;;5066876;28;19971;-78
2022/10/17 00:21:28;;;;;;;;;;;12.10;93.00;;;;;;5062288;28;20408;-77
2022/10/17 00:23:54;;;;;;;;;;;12.10;92.90;;;;;;5050722;28;20045;-77
2022/10/17 00:26:19;;;;;;;;;;;12.20;92.70;;;;;;5067354;28;19987;-77
2022/10/17 00:28:48;;;;;;;;;;;12.20;92.70;;;;;;5072526;28;20221;-77
2022/10/17 00:31:15;;;;;;;;;;;12.30;92.70;;;;;;5066470;28;20052;-77
2022/10/17 00:33:41;;;;;;;;;;;12.30;92.50;;;;;;5072124;28;20275;-77
2022/10/17 00:36:15;;;;;;;;;;;12.30;92.50;;;;;;5068403;28;19993;-77
2022/10/17 00:38:41;;;;;;;;;;;12.30;92.50;;;;;;5070677;28;19917;-77
2022/10/17 00:41:08;;;;;;;;;;;12.40;92.50;;;;;;5073641;28;19992;-77
2022/10/17 00:43:48;;;;;;;;;;;12.40;92.40;;;;;;5082761;28;19924;-79
2022/10/17 00:46:13;;;;;;;;;;;12.40;92.20;;;;;;5060374;28;19920;-77
2022/10/17 00:48:39;;;;;;;;;;;12.40;92.30;;;;;;5068609;28;20257;-77
2022/10/17 00:51:05;;;;;;;;;;;12.40;92.40;;;;;;5058707;28;19919;-77
2022/10/17 00:53:30;;;;;;;;;;;12.50;92.20;;;;;;5056073;28;19904;-77
2022/10/17 00:55:55;;;;;;;;;;;12.50;92.10;;;;;;5074332;28;19903;-77
2022/10/17 00:58:21;;;;;;;;;;;12.60;91.80;;;;;;5075707;28;20090;-78
2022/10/17 01:00:47;;;;;;;;;;;12.60;91.90;;;;;;5068740;28;19911;-77
2022/10/17 01:03:13;;;;;;;;;;;12.60;91.60;;;;;;5063548;28;19912;-77
2022/10/17 01:05:39;;;;;;;;;;;12.70;91.40;;;;;;5078087;28;19957;-77
2022/10/17 01:08:04;;;;;;;;;;;12.80;91.00;;;;;;5068138;28;20330;-78
2022/10/17 01:10:33;;;;;;;;;;;12.80;91.00;;;;;;5067278;28;20010;-78
2022/10/17 01:13:08;;;;;;;;;;;12.90;90.90;;;;;;5073219;28;19908;-77
2022/10/17 01:15:39;;;;;;;;;;;12.90;90.90;;;;;;5073923;28;19950;-77
2022/10/17 01:18:14;;;;;;;;;;;13.00;90.80;;;;;;5077170;28;20280;-77
2022/10/17 01:20:55;;;;;;;;;;;13.00;90.60;;;;;;5071126;28;19908;-77
2022/10/17 01:23:34;;;;;;;;;;;13.10;90.10;;;;;;5073592;28;20301;-78
2022/10/17 01:26:06;;;;;;;;;;;13.10;90.30;;;;;;5066845;28;20239;-77
2022/10/17 01:28:42;;;;;;;;;;;13.20;90.00;;;;;;5068379;28;19912;-77
2022/10/17 01:31:12;;;;;;;;;;;13.30;89.70;;;;;;5068982;28;19966;-78
2022/10/17 01:33:38;;;;;;;;;;;13.30;89.60;;;;;;5078756;28;19918;-77
2022/10/17 01:36:11;;;;;;;;;;;13.20;89.70;;;;;;5077202;28;19909;-78
2022/10/17 01:38:42;;;;;;;;;;;13.20;89.90;;;;;;5060395;28;20378;-78
2022/10/17 01:41:18;;;;;;;;;;;13.20;90.10;;;;;;5069444;28;20300;-78
2022/10/17 01:43:48;;;;;;;;;;;13.20;89.90;;;;;;5062980;28;20387;-77
2022/10/17 01:46:20;;;;;;;;;;;13.20;90.00;;;;;;5063967;28;19995;-77
2022/10/17 01:48:46;;;;;;;;;;;13.20;89.60;;;;;;5062174;28;20267;-77
2022/10/17 01:51:15;;;;;;;;;;;13.20;89.70;;;;;;5069823;28;19998;-77
2022/10/17 01:53:57;;;;;;;;;;;13.20;90.10;;;;;;5064845;28;20340;-77
2022/10/17 01:56:24;;;;;;;;;;;13.10;90.00;;;;;;5068640;28;20319;-78
2022/10/17 01:58:52;;;;;;;;;;;13.10;89.90;;;;;;5074596;28;20007;-77
2022/10/17 02:01:19;;;;;;;;;;;13.10;90.10;;;;;;5071821;28;20416;-77
2022/10/17 02:03:46;;;;;;;;;;;13.20;90.00;;;;;;5077293;28;19912;-77
2022/10/17 02:06:11;;;;;;;;;;;13.20;90.00;;;;;;5067439;28;20253;-77
2022/10/17 02:08:41;;;;;;;;;;;13.30;89.90;;;;;;5072015;28;19911;-77
2022/10/17 02:11:20;;;;;;;;;;;13.20;89.90;;;;;;5074197;28;20312;-77
2022/10/17 02:14:04;;;;;;;;;;;13.20;90.20;;;;;;5066348;28;19975;-77
2022/10/17 02:16:34;;;;;;;;;;;13.20;90.20;;;;;;5067401;28;19916;-77
2022/10/17 02:19:18;;;;;;;;;;;13.20;90.30;;;;;;5078493;28;20304;-77
2022/10/17 02:22:06;;;;;;;;;;;13.20;90.50;;;;;;5066635;28;20012;-77
2022/10/17 02:24:39;;;;;;;;;;;13.20;90.40;;;;;;5070556;28;19908;-78
2022/10/17 02:27:31;;;;;;;;;;;13.20;90.50;;;;;;5064263;28;19905;-77
2022/10/17 02:30:05;;;;;;;;;;;13.10;90.80;;;;;;5058322;28;19950;-77
2022/10/17 02:32:39;;;;;;;;;;;13.10;90.90;;;;;;5057047;28;20174;-77
2022/10/17 02:35:07;;;;;;;;;;;13.10;90.90;;;;;;5068632;28;20293;-77
2022/10/17 02:37:33;;;;;;;;;;;13.00;91.00;;;;;;5068742;28;19926;-77
2022/10/17 02:39:59;;;;;;;;;;;13.00;91.00;;;;;;5069116;28;20011;-77
2022/10/17 02:42:25;;;;;;;;;;;13.00;91.00;;;;;;5076897;28;19923;-77
2022/10/17 02:44:52;;;;;;;;;;;12.90;91.30;;;;;;5074055;28;19905;-78
2022/10/17 02:47:20;;;;;;;;;;;12.80;91.40;;;;;;5056843;28;19909;-77
2022/10/17 02:49:49;;;;;;;;;;;12.80;91.60;;;;;;5064890;28;19920;-77
2022/10/17 02:52:18;;;;;;;;;;;12.80;91.90;;;;;;5066371;28;19951;-77
2022/10/17 02:54:52;;;;;;;;;;;12.70;92.00;;;;;;5073031;28;20046;-77
2022/10/17 02:57:20;;;;;;;;;;;12.60;92.00;;;;;;5050405;28;19964;-77
2022/10/17 02:59:47;;;;;;;;;;;12.60;92.20;;;;;;5066532;28;19905;-77
2022/10/17 03:02:12;;;;;;;;;;;12.60;92.60;;;;;;5072258;28;19913;-77
2022/10/17 03:04:41;;;;;;;;;;;12.60;92.60;;;;;;5069305;28;19926;-78
2022/10/17 03:07:06;;;;;;;;;;;12.50;92.90;;;;;;5069197;28;20003;-77
2022/10/17 03:09:32;;;;;;;;;;;12.50;93.00;;;;;;5065638;28;20379;-78
2022/10/17 03:11:57;;;;;;;;;;;12.40;93.20;;;;;;5069874;28;20137;-77
2022/10/17 03:14:22;;;;;;;;;;;12.40;93.50;;;;;;5058136;28;19911;-79
2022/10/17 03:16:48;;;;;;;;;;;12.40;93.70;;;;;;5067016;28;19904;-77
2022/10/17 03:19:13;;;;;;;;;;;12.30;93.70;;;;;;5075776;28;20328;-77
2022/10/17 03:21:38;;;;;;;;;;;12.30;94.00;;;;;;5066656;28;19912;-77
2022/10/17 03:24:04;;;;;;;;;;;12.30;94.10;;;;;;5066210;28;19927;-77
2022/10/17 03:26:29;;;;;;;;;;;12.20;94.20;;;;;;5074140;28;19911;-77
2022/10/17 03:28:55;;;;;;;;;;;12.20;94.30;;;;;;5055158;28;20339;-77
2022/10/17 03:31:21;;;;;;;;;;;12.20;94.50;;;;;;5073226;28;20008;-77
2022/10/17 03:33:46;;;;;;;;;;;12.10;94.50;;;;;;5069898;28;19900;-77
2022/10/17 03:36:13;;;;;;;;;;;12.30;94.80;;;;;;5071734;28;19908;-78
2022/10/17 03:38:39;;;;;;;;;;;12.10;94.60;;;;;;5071903;28;20003;-77
2022/10/17 03:41:05;;;;;;;;;;;12.10;94.70;;;;;;5059808;28;20371;-77
2022/10/17 03:43:30;;;;;;;;;;;12.10;94.80;;;;;;5074120;28;19916;-77
2022/10/17 03:45:56;;;;;;;;;;;12.00;95.00;;;;;;5079678;28;19904;-78
2022/10/17 03:48:22;;;;;;;;;;;11.90;95.00;;;;;;5062432;28;19996;-77
2022/10/17 03:50:47;;;;;;;;;;;11.90;95.20;;;;;;5073417;28;20082;-77
2022/10/17 03:53:13;;;;;;;;;;;11.90;95.30;;;;;;5048676;28;20309;-77
2022/10/17 03:55:38;;;;;;;;;;;12.00;95.60;;;;;;5070541;28;19977;-77
2022/10/17 03:58:03;;;;;;;;;;;11.90;95.50;;;;;;5070361;28;19904;-77
2022/10/17 04:00:29;;;;;;;;;;;11.90;95.60;;;;;;5070847;28;20061;-77
2022/10/17 04:02:54;;;;;;;;;;;11.80;95.60;;;;;;5065969;28;19999;-78
2022/10/17 04:05:20;;;;;;;;;;;11.90;95.90;;;;;;5069170;28;20007;-77
2022/10/17 04:07:45;;;;;;;;;;;11.80;95.80;;;;;;5079939;28;19911;-77
2022/10/17 04:10:11;;;;;;;;;;;11.80;95.90;;;;;;5064900;28;19915;-77
2022/10/17 04:12:37;;;;;;;;;;;11.70;96.00;;;;;;5070439;28;19938;-77
2022/10/17 04:15:03;;;;;;;;;;;11.70;96.10;;;;;;5073290;28;20006;-78
2022/10/17 04:17:29;;;;;;;;;;;11.70;96.20;;;;;;5068273;28;19998;-77
2022/10/17 04:19:54;;;;;;;;;;;11.60;96.30;;;;;;5068661;28;20390;-77
2022/10/17 04:22:20;;;;;;;;;;;11.60;96.40;;;;;;5054799;28;19964;-77
2022/10/17 04:24:45;;;;;;;;;;;11.60;96.50;;;;;;5068210;28;19952;-77
2022/10/17 04:27:10;;;;;;;;;;;11.60;96.60;;;;;;5068842;28;19962;-77
2022/10/17 04:29:36;;;;;;;;;;;11.60;96.60;;;;;;5071323;28;19958;-69
2022/10/17 04:32:01;;;;;;;;;;;11.60;96.80;;;;;;5067783;28;20042;-67
2022/10/17 04:34:27;;;;;;;;;;;11.70;96.90;;;;;;5064722;28;19911;-66
2022/10/17 04:36:52;;;;;;;;;;;11.80;96.90;;;;;;5076158;28;19905;-67
2022/10/17 04:39:18;;;;;;;;;;;11.80;96.80;;;;;;5058894;28;20263;-67
2022/10/17 04:41:43;;;;;;;;;;;11.80;96.80;;;;;;5078063;28;19998;-67
2022/10/17 04:44:09;;;;;;;;;;;11.90;96.90;;;;;;5074379;28;20293;-66
2022/10/17 04:46:35;;;;;;;;;;;11.90;96.80;;;;;;5072937;28;20379;-67
2022/10/17 04:49:00;;;;;;;;;;;11.90;96.80;;;;;;5083373;28;19908;-67
2022/10/17 04:51:26;;;;;;;;;;;12.00;96.90;;;;;;5077890;28;19907;-66
2022/10/17 04:53:51;;;;;;;;;;;12.10;96.70;;;;;;5073925;28;19904;-68
2022/10/17 04:56:18;;;;;;;;;;;12.10;96.60;;;;;;5068820;28;20382;-67
2022/10/17 04:58:44;;;;;;;;;;;12.10;96.40;;;;;;5069925;28;19908;-67
2022/10/17 05:01:12;;;;;;;;;;;12.20;96.30;;;;;;5067291;28;19923;-67
2022/10/17 05:03:37;;;;;;;;;;;12.20;96.30;;;;;;5082795;28;20450;-70
2022/10/17 05:06:04;;;;;;;;;;;12.20;96.20;;;;;;5076969;28;19995;-67
2022/10/17 05:08:29;;;;;;;;;;;12.30;96.20;;;;;;5085032;28;19998;-66
2022/10/17 05:10:55;;;;;;;;;;;12.20;96.10;;;;;;5070112;28;20003;-67
2022/10/17 05:13:20;;;;;;;;;;;12.30;96.10;;;;;;5064550;28;19988;-67
2022/10/17 05:15:46;;;;;;;;;;;12.30;96.20;;;;;;5064753;28;20249;-66
2022/10/17 05:18:11;;;;;;;;;;;12.40;96.20;;;;;;5076724;28;19912;-67
2022/10/17 05:20:37;;;;;;;;;;;12.40;96.10;;;;;;5081481;28;19946;-69
2022/10/17 05:23:02;;;;;;;;;;;12.40;96.10;;;;;;5072221;28;19917;-67
2022/10/17 05:25:28;;;;;;;;;;;12.30;96.00;;;;;;5073772;28;20277;-68
2022/10/17 05:27:53;;;;;;;;;;;12.30;96.10;;;;;;5072587;28;20354;-66
2022/10/17 05:30:19;;;;;;;;;;;12.30;96.20;;;;;;5066092;28;19915;-65
2022/10/17 05:32:44;;;;;;;;;;;12.30;96.30;;;;;;5069138;28;19916;-67
2022/10/17 05:35:10;;;;;;;;;;;12.30;96.30;;;;;;5073908;28;19979;-67
2022/10/17 05:37:35;;;;;;;;;;;12.20;96.30;;;;;;5073753;28;19908;-66
2022/10/17 05:40:01;;;;;;;;;;;12.20;96.40;;;;;;5068995;28;19909;-65
2022/10/17 05:42:26;;;;;;;;;;;12.10;96.50;;;;;;5065302;28;19968;-68
2022/10/17 05:44:51;;;;;;;;;;;12.10;96.70;;;;;;5073675;28;19908;-65
2022/10/17 05:47:17;;;;;;;;;;;12.20;96.80;;;;;;5073573;28;19994;-65
2022/10/17 05:49:42;;;;;;;;;;;12.20;97.00;;;;;;5058570;28;19999;-66
2022/10/17 05:52:08;;;;;;;;;;;12.10;97.00;;;;;;5064440;28;19908;-66
2022/10/17 05:54:33;;;;;;;;;;;12.20;97.40;;;;;;5068385;28;19983;-66
2022/10/17 05:56:58;;;;;;;;;;;12.10;97.20;;;;;;5066039;28;20031;-67
2022/10/17 05:59:25;;;;;;;;;;;12.20;97.30;;;;;;5069045;28;19934;-66
2022/10/17 06:01:50;;;;;;;;;;;12.20;97.30;;;;;;5071046;28;19910;-66
2022/10/17 06:04:16;;;;;;;;;;;12.20;97.50;;;;;;5064480;28;19904;-66
2022/10/17 06:06:41;;;;;;;;;;;12.20;97.50;;;;;;5079164;28;19928;-68
2022/10/17 06:09:07;;;;;;;;;;;12.30;97.50;;;;;;5077642;28;20272;-67
2022/10/17 06:11:33;;;;;;;;;;;12.30;97.70;;;;;;5073055;28;20095;-68
2022/10/17 06:13:58;;;;;;;;;;;12.30;97.50;;;;;;5068911;28;20368;-66
2022/10/17 06:16:24;;;;;;;;;;;12.30;97.70;;;;;;5062204;28;19905;-66
2022/10/17 06:18:49;;;;;;;;;;;12.40;97.80;;;;;;5064960;28;19905;-67
2022/10/17 06:21:17;;;;;;;;;;;12.40;97.90;;;;;;5064778;28;19916;-66
2022/10/17 06:23:43;;;;;;;;;;;12.50;97.90;;;;;;5061715;28;19908;-69
2022/10/17 06:26:08;;;;;;;;;;;12.50;97.80;;;;;;5065813;28;19908;-66
2022/10/17 06:28:34;;;;;;;;;;;12.60;97.90;;;;;;5068849;28;20293;-66
2022/10/17 06:31:03;;;;;;;;;;;12.60;98.00;;;;;;5068960;28;19935;-70
2022/10/17 06:33:29;;;;;;;;;;;12.60;98.00;;;;;;5067512;28;19908;-66
2022/10/17 06:35:55;;;;;;;;;;;12.70;98.10;;;;;;5072597;28;20358;-67
2022/10/17 06:38:20;;;;;;;;;;;12.80;98.10;;;;;;5062168;28;20321;-66
2022/10/17 06:40:46;;;;;;;;;;;12.80;98.00;;;;;;5065476;28;20411;-68
2022/10/17 06:43:11;;;;;;;;;;;12.90;98.00;;;;;;5071153;28;19916;-66
2022/10/17 06:45:37;;;;;;;;;;;13.00;98.00;;;;;;5076747;28;19900;-67
2022/10/17 06:48:03;;;;;;;;;;;13.00;97.90;;;;;;5069599;28;20248;-67
2022/10/17 06:50:28;;;;;;;;;;;13.10;97.80;;;;;;5068965;28;19904;-66
2022/10/17 06:52:54;;;;;;;;;;;13.20;97.80;;;;;;5065833;28;19904;-66
2022/10/17 06:55:19;;;;;;;;;;;13.30;97.70;;;;;;5056219;28;19928;-67
2022/10/17 06:57:45;;;;;;;;;;;13.30;97.70;;;;;;5063593;28;19924;-68
2022/10/17 07:00:10;;;;;;;;;;;13.40;97.60;;;;;;5079375;28;20395;-66
2022/10/17 07:02:36;;;;;;;;;;;13.50;97.40;;;;;;5072465;28;19915;-66
2022/10/17 07:05:01;;;;;;;;;;;13.50;97.30;;;;;;5073122;28;19962;-68
2022/10/17 07:07:29;;;;;;;;;;;13.60;97.10;;;;;;5075979;28;20308;-67
2022/10/17 07:09:54;;;;;;;;;;;13.60;97.00;;;;;;5051800;28;19910;-66
2022/10/17 07:12:20;;;;;;;;;;;13.70;96.80;;;;;;5073688;28;19916;-66
2022/10/17 07:14:46;;;;;;;;;;;13.70;96.70;;;;;;5067033;28;20351;-67
2022/10/17 07:17:12;;;;;;;;;;;13.90;96.60;;;;;;5071856;28;19909;-68
2022/10/17 07:19:37;;;;;;;;;;;13.90;96.40;;;;;;5077239;28;19911;-68
2022/10/17 07:22:03;;;;;;;;;;;13.90;96.30;;;;;;5077445;28;19920;-68
2022/10/17 07:24:28;;;;;;;;;;;14.00;96.30;;;;;;5068282;28;20034;-68
2022/10/17 07:26:54;;;;;;;;;;;14.10;96.20;;;;;;5076773;28;19962;-66
2022/10/17 07:29:19;;;;;;;;;;;14.10;96.20;;;;;;5074746;28;20008;-66
2022/10/17 07:31:47;;;;;;;;;;;14.20;96.10;;;;;;5083617;28;19911;-66
2022/10/17 07:34:13;;;;;;;;;;;14.40;95.90;;;;;;5067360;28;19904;-69
2022/10/17 07:36:38;;;;;;;;;;;14.50;95.80;;;;;;5084128;28;19969;-66
2022/10/17 07:39:03;;;;;;;;;;;14.70;95.50;;;;;;5066498;28;19904;-67
2022/10/17 07:41:29;;;;;;;;;;;14.80;95.00;;;;;;5072016;28;20067;-66
2022/10/17 07:43:54;;;;;;;;;;;15.00;94.50;;;;;;5053229;28;20463;-66
2022/10/17 07:46:20;;;;;;;;;;;15.30;93.90;;;;;;5069213;28;20061;-68
2022/10/17 07:48:45;;;;;;;;;;;15.50;93.60;;;;;;5071682;28;19924;-66
2022/10/17 07:51:10;;;;;;;;;;;15.60;93.40;;;;;;5074179;28;19915;-67
2022/10/17 07:53:37;;;;;;;;;;;15.70;93.10;;;;;;5073087;28;19904;-67
2022/10/17 07:56:06;;;;;;;;;;;15.90;93.00;;;;;;5061754;28;19916;-66
2022/10/17 07:58:32;;;;;;;;;;;16.00;92.70;;;;;;5075524;28;20046;-66
2022/10/17 08:01:01;;;;;;;;;;;16.10;91.90;;;;;;5075244;28;20326;-70
2022/10/17 08:03:27;;;;;;;;;;;16.30;91.80;;;;;;5068613;28;20379;-67
2022/10/17 08:05:56;;;;;;;;;;;16.40;91.60;;;;;;5076504;28;20074;-67
2022/10/17 08:08:21;;;;;;;;;;;16.40;90.90;;;;;;5072958;28;20364;-66
2022/10/17 08:10:46;;;;;;;;;;;16.50;90.90;;;;;;5057264;28;20076;-67
2022/10/17 08:13:12;;;;;;;;;;;16.60;90.90;;;;;;5070755;28;19976;-67
2022/10/17 08:15:38;;;;;;;;;;;16.60;90.60;;;;;;5051835;28;20252;-67
2022/10/17 08:18:03;;;;;;;;;;;16.70;90.80;;;;;;5067392;28;20215;-66
2022/10/17 08:20:28;;;;;;;;;;;16.70;90.60;;;;;;5069978;28;19923;-68
2022/10/17 08:22:54;;;;;;;;;;;16.80;90.50;;;;;;5082952;28;19912;-67
2022/10/17 08:25:20;;;;;;;;;;;16.90;90.50;;;;;;5067942;28;20213;-67
2022/10/17 08:27:45;;;;;;;;;;;16.90;90.00;;;;;;5070723;28;19999;-67
2022/10/17 08:30:11;;;;;;;;;;;17.10;90.20;;;;;;5068788;28;20004;-67
2022/10/17 08:32:36;;;;;;;;;;;17.40;90.10;;;;;;5067808;28;20007;-67
2022/10/17 08:35:02;;;;;;;;;;;17.50;89.30;;;;;;5066948;28;19912;-68
2022/10/17 08:37:28;;;;;;;;;;;17.60;88.70;;;;;;5069064;28;19905;-68
2022/10/17 08:39:54;;;;;;;;;;;17.70;88.40;;;;;;5065424;28;19908;-67
2022/10/17 08:42:38;;;;;;;;;;;17.70;88.10;;;;;;5068773;28;20240;-67
2022/10/17 08:45:20;;;;;;;;;;;17.80;88.40;;;;;;5075644;28;19991;-67
2022/10/17 08:47:51;;;;;;;;;;;18.00;87.50;;;;;;5067120;28;19983;-68
2022/10/17 08:50:23;;;;;;;;;;;18.00;87.30;;;;;;5070184;28;19900;-69
2022/10/17 08:52:51;;;;;;;;;;;18.00;87.40;;;;;;5062868;28;19978;-68
2022/10/17 08:55:19;;;;;;;;;;;18.20;88.20;;;;;;5050915;28;19909;-67
2022/10/17 08:57:46;;;;;;;;;;;18.10;86.20;;;;;;5069033;28;19911;-68
2022/10/17 09:00:15;;;;;;;;;;;18.30;86.80;;;;;;5068226;28;19908;-68
2022/10/17 09:02:53;;;;;;;;;;;18.50;86.30;;;;;;5057036;28;19915;-67
2022/10/17 09:05:24;;;;;;;;;;;18.60;86.00;;;;;;5069097;28;20245;-67
2022/10/17 09:08:05;;;;;;;;;;;18.80;85.90;;;;;;5070174;28;19942;-67
2022/10/17 09:10:30;;;;;;;;;;;19.00;85.50;;;;;;5063521;28;20358;-67
2022/10/17 09:12:59;;;;;;;;;;;19.10;85.40;;;;;;5077294;28;20122;-68
2022/10/17 09:15:30;;;;;;;;;;;19.00;84.20;;;;;;5079866;28;19911;-69
2022/10/17 09:17:59;;;;;;;;;;;19.30;84.80;;;;;;5065950;28;19908;-68
2022/10/17 09:20:26;;;;;;;;;;;19.50;84.10;;;;;;5069507;28;19993;-66
2022/10/17 09:23:03;;;;;;;;;;;19.50;83.00;;;;;;5078475;28;20035;-66
2022/10/17 09:25:33;;;;;;;;;;;19.50;83.80;;;;;;5080227;28;20328;-68
2022/10/17 09:28:02;;;;;;;;;;;19.60;83.80;;;;;;5063806;28;19900;-68
2022/10/17 09:30:34;;;;;;;;;;;19.50;82.50;;;;;;5069698;28;19904;-67
2022/10/17 09:32:59;;;;;;;;;;;19.60;82.60;;;;;;5066431;28;19999;-67
2022/10/17 09:35:26;;;;;;;;;;;19.60;82.50;;;;;;5069196;28;19939;-67
2022/10/17 09:37:52;;;;;;;;;;;19.70;83.10;;;;;;5069605;28;19904;-67
2022/10/17 09:40:23;;;;;;;;;;;20.00;82.30;;;;;;5067193;28;20236;-67
2022/10/17 09:42:50;;;;;;;;;;;20.30;82.80;;;;;;5078684;28;19912;-67
2022/10/17 09:45:25;;;;;;;;;;;20.50;81.60;;;;;;5064307;28;20247;-67
2022/10/17 09:47:51;;;;;;;;;;;20.40;80.50;;;;;;5063830;28;19908;-67
2022/10/17 09:50:22;;;;;;;;;;;20.40;80.40;;;;;;5068349;28;20408;-69
2022/10/17 09:52:49;;;;;;;;;;;20.30;80.70;;;;;;5060588;28;20333;-67
2022/10/17 09:55:14;;;;;;;;;;;20.20;80.90;;;;;;5061775;28;19919;-69
2022/10/17 09:57:59;;;;;;;;;;;20.10;81.00;;;;;;5068200;28;19974;-67
2022/10/17 10:00:36;;;;;;;;;;;20.30;81.30;;;;;;5065599;28;19900;-67
2022/10/17 10:03:16;;;;;;;;;;;20.40;80.70;;;;;;5059817;28;20058;-68
2022/10/17 10:05:42;;;;;;;;;;;20.20;79.90;;;;;;5068611;28;19905;-68
2022/10/17 10:08:15;;;;;;;;;;;20.50;81.30;;;;;;5067937;28;19912;-68
2022/10/17 10:10:42;;;;;;;;;;;20.40;80.70;;;;;;5066001;28;19911;-66
2022/10/17 10:13:13;;;;;;;;;;;20.50;80.00;;;;;;5082569;28;19922;-67
2022/10/17 10:15:48;;;;;;;;;;;20.60;80.20;;;;;;5083946;28;20344;-67
2022/10/17 10:18:23;;;;;;;;;;;20.70;80.00;;;;;;5062923;28;19947;-67
2022/10/17 10:21:01;;;;;;;;;;;20.80;80.00;;;;;;5078453;28;19963;-67
2022/10/17 10:23:26;;;;;;;;;;;20.70;79.80;;;;;;5063016;28;21458;-66
2022/10/17 10:25:56;;;;;;;;;;;20.60;79.90;;;;;;5066219;28;19994;-66
2022/10/17 10:28:26;;;;;;;;;;;20.60;80.00;;;;;;5064171;28;19962;-67
2022/10/17 10:30:53;;;;;;;;;;;20.50;79.80;;;;;;5065331;28;19908;-66
2022/10/17 10:33:20;;;;;;;;;;;20.50;80.30;;;;;;5063190;28;19916;-67
2022/10/17 10:35:54;;;;;;;;;;;20.50;80.50;;;;;;5067073;28;20014;-66
2022/10/17 10:38:19;;;;;;;;;;;20.50;81.20;;;;;;5069182;28;19915;-66
2022/10/17 10:40:45;;;;;;;;;;;20.40;80.90;;;;;;5064873;28;19904;-67
2022/10/17 10:43:20;;;;;;;;;;;20.30;80.80;;;;;;5053575;28;19908;-68
2022/10/17 10:45:45;;;;;;;;;;;20.30;80.70;;;;;;5070334;28;19998;-68
2022/10/17 10:48:11;;;;;;;;;;;20.20;80.90;;;;;;5082990;28;20035;-66
2022/10/17 10:50:38;;;;;;;;;;;20.20;80.80;;;;;;5071954;28;20304;-67
2022/10/17 10:53:06;;;;;;;;;;;20.20;81.40;;;;;;5067668;28;19923;-69
2022/10/17 10:55:39;;;;;;;;;;;20.10;81.80;;;;;;5069143;28;19959;-67
2022/10/17 10:58:12;;;;;;;;;;;20.00;81.90;;;;;;5063562;28;19915;-66
2022/10/17 11:00:38;;;;;;;;;;;20.00;81.70;;;;;;5060617;28;20292;-67
2022/10/17 11:03:16;;;;;;;;;;;20.00;82.40;;;;;;5064624;28;20011;-66
2022/10/17 11:06:10;;;;;;;;;;;20.00;82.00;;;;;;5069908;28;19939;-66
2022/10/17 11:08:43;;;;;;;;;;;20.10;81.70;;;;;;5048392;28;20308;-66
2022/10/17 11:11:26;;;;;;;;;;;20.30;82.40;;;;;;5060677;28;19925;-67
2022/10/17 11:13:56;;;;;;;;;;;20.30;81.60;;;;;;5064483;28;20195;-67
2022/10/17 11:16:27;;;;;;;;;;;20.30;82.20;;;;;;5081436;28;19970;-70
2022/10/17 11:19:01;;;;;;;;;;;20.30;81.80;;;;;;5072812;28;20015;-67
2022/10/17 11:21:37;;;;;;;;;;;20.30;82.10;;;;;;5055628;28;19916;-66
2022/10/17 11:24:18;;;;;;;;;;;20.20;82.80;;;;;;5066865;28;20141;-66
2022/10/17 11:26:54;;;;;;;;;;;20.20;82.40;;;;;;5064100;28;20368;-67
2022/10/17 11:29:21;;;;;;;;;;;20.10;82.30;;;;;;5066958;28;20418;-66
2022/10/17 11:31:49;;;;;;;;;;;20.00;82.70;;;;;;5067785;28;20462;-67
2022/10/17 11:34:21;;;;;;;;;;;20.00;83.30;;;;;;5067558;28;19904;-66
2022/10/17 11:36:49;;;;;;;;;;;20.00;83.50;;;;;;5067642;28;19913;-69
2022/10/17 11:39:17;;;;;;;;;;;19.90;82.90;;;;;;5068780;28;19910;-67
2022/10/17 11:41:45;;;;;;;;;;;20.00;83.20;;;;;;5072285;28;20002;-67
2022/10/17 11:44:23;;;;;;;;;;;19.90;83.10;;;;;;5058577;28;20290;-66
2022/10/17 11:46:54;;;;;;;;;;;19.90;83.20;;;;;;5068991;28;19915;-66
2022/10/17 11:49:39;;;;;;;;;;;19.80;83.40;;;;;;5078079;28;19911;-66
2022/10/17 11:52:24;;;;;;;;;;;19.80;83.50;;;;;;5059404;28;20053;-66
2022/10/17 11:55:09;;;;;;;;;;;19.70;83.70;;;;;;5067890;28;19931;-66
2022/10/17 11:57:54;;;;;;;;;;;19.70;83.60;;;;;;5065815;28;19911;-66
2022/10/17 12:00:22;;;;;;;;;;;19.70;83.90;;;;;;5066710;28;19916;-66
2022/10/17 12:02:59;;;;;;;;;;;19.70;84.60;;;;;;5064563;28;19916;-67
2022/10/17 12:05:30;;;;;;;;;;;19.70;84.10;;;;;;5072823;28;19908;-66
2022/10/17 12:08:09;;;;;;;;;;;19.80;84.10;;;;;;5063796;28;19933;-66
2022/10/17 12:10:52;;;;;;;;;;;19.70;84.30;;;;;;5078389;28;19982;-66
2022/10/17 12:13:26;;;;;;;;;;;19.60;84.80;;;;;;5074220;28;19909;-66
2022/10/17 12:15:52;;;;;;;;;;;19.70;83.90;;;;;;5071251;28;19941;-66
2022/10/17 12:18:18;;;;;;;;;;;19.60;84.40;;;;;;5066913;28;20078;-66
2022/10/17 12:20:54;;;;;;;;;;;19.60;84.40;;;;;;5078178;28;20059;-66
2022/10/17 12:23:22;;;;;;;;;;;19.60;84.60;;;;;;5070657;28;19908;-66
2022/10/17 12:25:50;;;;;;;;;;;19.60;84.80;;;;;;5069837;28;19908;-66
2022/10/17 12:28:29;;;;;;;;;;;19.60;84.40;;;;;;5070005;28;19904;-67
2022/10/17 12:30:57;;;;;;;;;;;19.60;84.70;;;;;;5073606;28;20320;-67
2022/10/17 12:33:28;;;;;;;;;;;19.60;84.80;;;;;;5069956;28;19950;-66
2022/10/17 12:36:29;;;;;;;;;;;19.50;85.20;;;;;;5065395;28;19922;-67
2022/10/17 12:39:00;;;;;;;;;;;19.50;85.00;;;;;;4977719;28;20069;-66
2022/10/17 12:41:38;;;;;;;;;;;19.40;84.70;;;;;;5055770;28;20002;-66
2022/10/17 12:44:12;;;;;;;;;;;19.40;85.20;;;;;;5070900;28;19966;-66
2022/10/17 12:46:46;;;;;;;;;;;19.30;85.00;;;;;;5080432;28;20129;-66
2022/10/17 12:49:30;;;;;;;;;;;19.30;85.20;;;;;;5068692;28;19962;-67
2022/10/17 12:52:14;;;;;;;;;;;19.20;85.30;;;;;;5056129;28;19949;-65
2022/10/17 12:54:43;;;;;;;;;;;19.20;85.60;;;;;;5066949;28;19912;-66
2022/10/17 12:57:18;;;;;;;;;;;19.10;85.70;;;;;;5067123;28;19999;-65
2022/10/17 12:59:44;;;;;;;;;;;19.00;86.70;;;;;;5069813;28;19915;-66
2022/10/17 13:02:14;;;;;;;;;;;18.80;88.50;;;;;;5084038;28;19912;-65
2022/10/17 13:04:40;;;;;;;;;;;18.30;91.00;;;;;;5070779;28;19908;-65
2022/10/17 13:07:12;;;;;;;;;;;18.00;92.80;;;;;;5076073;28;20015;-66
2022/10/17 13:09:41;;;;;;;;;;;17.80;93.80;;;;;;5065997;28;19908;-66
2022/10/17 13:12:12;;;;;;;;;;;17.70;94.30;;;;;;5075522;28;19920;-66
2022/10/17 13:14:39;;;;;;;;;;;17.60;94.80;;;;;;5062868;28;20018;-65
2022/10/17 13:17:05;;;;;;;;;;;17.60;95.40;;;;;;5062925;28;19916;-66
2022/10/17 13:19:39;;;;;;;;;;;17.50;95.70;;;;;;5067083;28;20178;-66
2022/10/17 13:22:18;;;;;;;;;;;17.50;95.90;;;;;;5078121;28;20320;-66
2022/10/17 13:24:44;;;;;;;;;;;17.50;96.20;;;;;;5058280;28;19911;-67
2022/10/17 13:27:23;;;;;;;;;;;17.40;96.40;;;;;;5053440;28;19905;-66
2022/10/17 13:29:49;;;;;;;;;;;17.40;96.60;;;;;;5069027;28;19908;-65
2022/10/17 13:32:14;;;;;;;;;;;17.30;96.80;;;;;;5068576;28;19984;-65
2022/10/17 13:34:39;;;;;;;;;;;17.20;97.00;;;;;;5067384;28;20370;-66
2022/10/17 13:37:06;;;;;;;;;;;17.10;97.50;;;;;;5070045;28;20356;-68
2022/10/17 13:39:41;;;;;;;;;;;17.00;97.80;;;;;;5063440;28;19940;-66
2022/10/17 13:42:15;;;;;;;;;;;17.00;98.00;;;;;;5063181;28;19909;-66
2022/10/17 13:44:41;;;;;;;;;;;17.00;98.20;;;;;;5069019;28;19904;-65
2022/10/17 13:47:19;;;;;;;;;;;16.90;98.30;;;;;;5054774;28;19930;-66
2022/10/17 13:49:44;;;;;;;;;;;16.90;98.50;;;;;;5077964;28;20442;-65
2022/10/17 13:52:17;;;;;;;;;;;16.90;98.60;;;;;;5058561;28;20006;-65
2022/10/17 13:54:44;;;;;;;;;;;16.90;98.70;;;;;;5063482;28;19996;-66
2022/10/17 13:57:17;;;;;;;;;;;16.80;98.80;;;;;;5067263;28;19927;-69
2022/10/17 13:59:46;;;;;;;;;;;16.90;98.80;;;;;;5075993;28;19904;-67
2022/10/17 14:02:28;;;;;;;;;;;16.90;98.90;;;;;;5076827;28;20064;-66
2022/10/17 14:05:09;;;;;;;;;;;16.90;99.00;;;;;;5064189;28;19997;-65
2022/10/17 14:07:39;;;;;;;;;;;16.90;99.00;;;;;;5067726;28;19978;-66
2022/10/17 14:10:05;;;;;;;;;;;16.90;99.10;;;;;;5073963;28;19939;-65
2022/10/17 14:12:31;;;;;;;;;;;16.90;99.10;;;;;;5070328;28;19961;-65
2022/10/17 14:14:57;;;;;;;;;;;16.90;99.10;;;;;;5077167;28;20011;-66
2022/10/17 14:17:23;;;;;;;;;;;16.90;99.20;;;;;;5065276;28;19995;-66
2022/10/17 14:19:53;;;;;;;;;;;16.90;99.20;;;;;;5065922;28;19955;-66
2022/10/17 14:22:21;;;;;;;;;;;16.90;99.30;;;;;;5069254;28;20020;-66
2022/10/17 14:24:47;;;;;;;;;;;16.90;99.30;;;;;;5071258;28;19904;-66
2022/10/17 14:27:26;;;;;;;;;;;16.80;99.30;;;;;;5079436;28;20228;-69